createdAt,value
2023-03-04T00:00:09.867Z,99053.53
2023-03-04T00:03:16.125Z,99050.88
2023-03-04T00:06:17.684Z,99047.38
2023-03-04T00:09:19.291Z,99054.41
2023-03-04T00:12:21.126Z,99050.91
2023-03-04T00:15:22.709Z,99054.34
2023-03-04T00:18:25.711Z,99044.72
2023-03-04T00:21:27.251Z,99041.19
2023-03-04T00:24:29.323Z,99042.94
2023-03-04T00:27:30.948Z,99044.69
2023-03-04T00:30:33.005Z,99044.72
2023-03-04T00:33:36.143Z,99051.72
2023-03-04T00:36:38.020Z,99048.22
2023-03-04T00:39:40.032Z,99041.16
2023-03-04T00:42:41.728Z,99045.56
2023-03-04T00:45:43.636Z,99053.47
2023-03-04T00:48:47.007Z,99049.94
2023-03-04T00:51:48.587Z,99037.69
2023-03-04T00:54:50.295Z,99048.22
2023-03-04T00:57:51.829Z,99052.56
2023-03-04T01:00:53.505Z,99041.16
2023-03-04T01:03:56.505Z,99052.56
2023-03-04T01:06:58.168Z,99046.41
2023-03-04T01:09:59.758Z,99043.78
2023-03-04T01:13:01.322Z,99042.91
2023-03-04T01:16:03.847Z,99041.13
2023-03-04T01:19:07.759Z,99042.88
2023-03-04T01:22:11.052Z,99042.81
2023-03-04T01:25:12.630Z,99034.06
2023-03-04T01:28:14.280Z,99028.78
2023-03-04T01:31:16.181Z,99034.88
2023-03-04T01:34:19.251Z,99031.41
2023-03-04T01:37:20.737Z,99027.00
2023-03-04T01:40:22.420Z,99018.22
2023-03-04T01:43:28.816Z,99005.06
2023-03-04T01:46:31.612Z,99014.72
2023-03-04T01:49:34.927Z,99008.53
2023-03-04T01:52:43.135Z,99004.16
2023-03-04T01:55:44.694Z,99012.03
2023-03-04T01:59:06.589Z,99005.88
2023-03-04T02:02:08.368Z,98996.22
2023-03-04T02:05:12.914Z,98988.31
2023-03-04T02:08:15.832Z,98985.72
2023-03-04T02:11:17.573Z,98982.16
2023-03-04T02:14:19.680Z,98984.81
2023-03-04T02:17:24.737Z,98977.78
2023-03-04T02:20:33.481Z,98976.94
2023-03-04T02:23:37.964Z,98967.28
2023-03-04T02:26:43.798Z,98966.41
2023-03-04T02:29:46.612Z,98965.53
2023-03-04T02:32:48.793Z,98966.41
2023-03-04T02:35:50.416Z,98967.22
2023-03-04T02:38:52.994Z,98965.47
2023-03-04T02:41:56.305Z,98963.69
2023-03-04T02:45:00.496Z,98969.00
2023-03-04T02:48:02.675Z,98962.84
2023-03-04T02:51:04.576Z,98957.56
2023-03-04T02:54:14.925Z,98952.25
2023-03-04T02:57:17.971Z,98958.44
2023-03-04T03:00:23.673Z,98952.28
2023-03-04T03:03:25.729Z,98954.03
2023-03-04T03:06:27.335Z,98947.88
2023-03-04T03:09:29.423Z,98946.16
2023-03-04T03:12:32.943Z,98946.16
2023-03-04T03:15:34.635Z,98944.38
2023-03-04T03:18:44.183Z,98939.13
2023-03-04T03:21:47.576Z,98932.94
2023-03-04T03:24:49.505Z,98934.72
2023-03-04T03:27:52.670Z,98932.03
2023-03-04T03:30:54.571Z,98925.03
2023-03-04T03:33:56.260Z,98926.78
2023-03-04T03:36:58.329Z,98923.25
2023-03-04T03:39:59.941Z,98921.50
2023-03-04T03:43:03.192Z,98921.47
2023-03-04T03:46:05.087Z,98925.84
2023-03-04T03:49:06.710Z,98925.00
2023-03-04T03:52:09.146Z,98928.47
2023-03-04T03:55:11.089Z,98924.97
2023-03-04T03:58:14.409Z,98932.00
2023-03-04T04:01:16.029Z,98929.38
2023-03-04T04:04:17.604Z,98928.47
2023-03-04T04:07:19.392Z,98921.47
2023-03-04T04:10:21.658Z,98926.69
2023-03-04T04:13:24.849Z,98929.38
2023-03-04T04:16:26.621Z,98917.94
2023-03-04T04:19:28.454Z,98919.72
2023-03-04T04:22:30.126Z,98917.94
2023-03-04T04:25:31.737Z,98915.31
2023-03-04T04:28:35.131Z,98913.56
2023-03-04T04:31:39.585Z,98916.19
2023-03-04T04:34:41.195Z,98918.81
2023-03-04T04:37:42.699Z,98915.34
2023-03-04T04:40:44.377Z,98918.00
2023-03-04T04:43:49.558Z,98914.44
2023-03-04T04:46:51.235Z,98918.84
2023-03-04T04:49:52.842Z,98916.19
2023-03-04T04:52:54.395Z,98910.94
2023-03-04T04:55:56.118Z,98904.78
2023-03-04T04:58:59.784Z,98910.97
2023-03-04T05:02:01.339Z,98910.97
2023-03-04T05:05:03.583Z,98906.63
2023-03-04T05:08:05.432Z,98910.09
2023-03-04T05:11:07.361Z,98903.94
2023-03-04T05:14:10.393Z,98907.50
2023-03-04T05:17:12.023Z,98908.34
2023-03-04T05:20:14.319Z,98901.31
2023-03-04T05:23:15.974Z,98909.22
2023-03-04T05:26:18.059Z,98899.53
2023-03-04T05:29:21.379Z,98905.72
2023-03-04T05:32:23.176Z,98898.72
2023-03-04T05:35:26.683Z,98896.06
2023-03-04T05:38:32.580Z,98900.47
2023-03-04T05:41:34.190Z,98908.38
2023-03-04T05:44:37.219Z,98903.97
2023-03-04T05:47:39.110Z,98901.31
2023-03-04T05:50:40.814Z,98905.72
2023-03-04T05:53:42.554Z,98902.19
2023-03-04T05:56:44.119Z,98897.78
2023-03-04T05:59:47.024Z,98897.81
2023-03-04T06:02:48.788Z,98902.19
2023-03-04T06:05:50.428Z,98903.06
2023-03-04T06:08:52.089Z,98903.97
2023-03-04T06:11:53.670Z,98906.63
2023-03-04T06:14:56.677Z,98904.03
2023-03-04T06:17:58.530Z,98905.78
2023-03-04T06:21:01.224Z,98904.97
2023-03-04T06:24:02.881Z,98896.25
2023-03-04T06:27:04.489Z,98905.00
2023-03-04T06:30:08.342Z,98909.38
2023-03-04T06:33:09.961Z,98908.56
2023-03-04T06:36:11.654Z,98907.66
2023-03-04T06:39:13.510Z,98911.13
2023-03-04T06:42:15.201Z,98909.38
2023-03-04T06:45:18.269Z,98911.97
2023-03-04T06:48:19.888Z,98913.72
2023-03-04T06:51:21.498Z,98915.50
2023-03-04T06:54:23.336Z,98919.84
2023-03-04T06:57:25.211Z,98918.03
2023-03-04T07:00:28.799Z,98916.31
2023-03-04T07:03:30.482Z,98915.44
2023-03-04T07:06:32.101Z,98913.72
2023-03-04T07:09:33.700Z,98907.53
2023-03-04T07:12:35.556Z,98911.91
2023-03-04T07:15:38.797Z,98903.13
2023-03-04T07:18:40.666Z,98909.28
2023-03-04T07:21:42.537Z,98905.75
2023-03-04T07:24:44.163Z,98906.63
2023-03-04T07:27:45.742Z,98916.25
2023-03-04T07:30:48.780Z,98912.72
2023-03-04T07:33:51.338Z,98913.56
2023-03-04T07:36:53.140Z,98910.06
2023-03-04T07:39:54.702Z,98908.28
2023-03-04T07:42:56.676Z,98910.03
2023-03-04T07:46:01.637Z,98907.44
2023-03-04T07:49:03.577Z,98907.41
2023-03-04T07:52:05.580Z,98909.13
2023-03-04T07:55:07.593Z,98904.78
2023-03-04T07:58:09.104Z,98905.63
2023-03-04T08:01:13.218Z,98902.03
2023-03-04T08:04:14.906Z,98907.28
2023-03-04T08:07:17.256Z,98904.63
2023-03-04T08:10:18.986Z,98911.63
2023-03-04T08:13:20.826Z,98913.38
2023-03-04T08:16:24.638Z,98903.72
2023-03-04T08:19:26.211Z,98904.63
2023-03-04T08:22:27.830Z,98909.03
2023-03-04T08:25:29.561Z,98910.75
2023-03-04T08:28:31.156Z,98901.00
2023-03-04T08:31:34.303Z,98918.53
2023-03-04T08:34:39.141Z,98905.31
2023-03-04T08:37:40.688Z,98903.53
2023-03-04T08:40:42.324Z,98900.00
2023-03-04T08:43:44.048Z,98899.97
2023-03-04T08:46:47.102Z,98907.03
2023-03-04T08:49:50.430Z,98907.91
2023-03-04T08:52:52.019Z,98911.44
2023-03-04T08:55:53.619Z,98914.00
2023-03-04T08:58:55.414Z,98912.22
2023-03-04T09:01:58.640Z,98905.19
2023-03-04T09:05:00.471Z,98902.50
2023-03-04T09:08:02.297Z,98905.94
2023-03-04T09:11:04.053Z,98900.72
2023-03-04T09:14:05.717Z,98900.66
2023-03-04T09:17:10.015Z,98900.66
2023-03-04T09:20:13.095Z,98897.13
2023-03-04T09:23:15.164Z,98893.63
2023-03-04T09:26:22.016Z,98894.41
2023-03-04T09:29:24.180Z,98904.91
2023-03-04T09:32:27.301Z,98905.81
2023-03-04T09:35:30.190Z,98897.03
2023-03-04T09:38:31.794Z,98900.56
2023-03-04T09:41:37.206Z,98898.00
2023-03-04T09:44:41.291Z,98897.06
2023-03-04T09:47:44.795Z,98901.47
2023-03-04T09:50:52.984Z,98895.25
2023-03-04T10:00:38.924Z,98890.81
2023-03-04T10:03:45.211Z,98884.59
2023-03-04T10:06:51.587Z,98881.97
2023-03-04T10:09:56.079Z,98878.34
2023-03-04T10:12:58.574Z,98879.16
2023-03-04T10:16:01.853Z,98877.47
2023-03-04T10:19:15.189Z,98878.34
2023-03-04T10:22:20.193Z,98881.03
2023-03-04T10:25:23.122Z,98873.03
2023-03-04T10:28:26.650Z,98878.25
2023-03-04T10:31:31.649Z,98876.56
2023-03-04T10:34:34.909Z,98870.34
2023-03-04T10:37:46.444Z,98873.84
2023-03-04T10:40:47.980Z,98868.47
2023-03-04T10:43:50.799Z,98865.81
2023-03-04T10:46:54.502Z,98858.78
2023-03-04T10:49:58.527Z,98864.84
2023-03-04T10:53:00.159Z,98866.59
2023-03-04T10:56:06.126Z,98870.97
2023-03-04T10:59:26.833Z,98875.47
2023-03-04T11:02:29.455Z,98868.38
2023-03-04T11:05:33.930Z,98871.00
2023-03-04T11:08:35.632Z,98865.81
2023-03-04T11:11:38.915Z,98867.53
2023-03-04T11:14:44.385Z,98876.16
2023-03-04T11:17:48.477Z,98869.84
2023-03-04T11:20:51.957Z,98863.50
2023-03-04T11:23:56.942Z,98860.69
2023-03-04T11:27:02.826Z,98856.16
2023-03-04T11:30:16.333Z,98852.59
2023-03-04T11:33:22.900Z,98857.19
2023-03-04T11:36:33.046Z,98857.19
2023-03-04T11:39:36.648Z,98856.44
2023-03-04T11:42:41.556Z,98867.06
2023-03-04T11:45:59.832Z,98853.88
2023-03-04T11:49:07.909Z,98857.38
2023-03-04T11:52:15.955Z,98857.25
2023-03-04T11:55:31.425Z,98856.28
2023-03-04T11:58:48.099Z,98851.81
2023-03-04T12:01:54.982Z,98841.97
2023-03-04T12:05:18.665Z,98839.09
2023-03-04T12:08:39.376Z,98837.72
2023-03-04T12:11:46.527Z,98830.31
2023-03-04T12:14:53.099Z,98829.63
2023-03-04T12:18:05.115Z,98827.88
2023-03-04T12:21:21.846Z,98818.28
2023-03-04T12:24:32.256Z,98811.19
2023-03-04T12:27:37.337Z,98807.63
2023-03-04T12:30:47.522Z,98802.41
2023-03-04T12:33:56.060Z,98816.50
2023-03-04T12:37:05.563Z,98809.63
2023-03-04T12:40:22.079Z,98800.94
2023-03-04T12:43:32.516Z,98801.00
2023-03-04T12:46:41.260Z,98799.25
2023-03-04T12:49:50.424Z,98791.50
2023-03-04T12:52:58.717Z,98788.00
2023-03-04T12:56:00.733Z,98784.50
2023-03-04T12:59:05.147Z,98790.72
2023-03-04T13:02:18.965Z,98789.06
2023-03-04T13:05:29.495Z,98790.91
2023-03-04T13:08:34.088Z,98787.34
2023-03-04T13:11:50.432Z,98796.31
2023-03-04T13:15:07.147Z,98795.66
2023-03-04T13:18:28.018Z,98796.66
2023-03-04T13:21:32.277Z,98795.81
2023-03-04T13:24:47.253Z,98794.03
2023-03-04T13:27:50.174Z,98785.84
2023-03-04T13:31:12.294Z,98783.09
2023-03-04T13:34:28.741Z,98783.00
2023-03-04T13:37:36.010Z,98775.81
2023-03-04T13:40:37.963Z,98779.81
2023-03-04T13:43:40.848Z,98779.09
2023-03-04T13:46:43.518Z,98763.59
2023-03-04T13:49:45.471Z,98756.56
2023-03-04T13:52:49.114Z,98757.50
2023-03-04T13:56:09.081Z,98757.81
2023-03-04T13:59:28.452Z,98752.69
2023-03-04T14:02:34.549Z,98769.63
2023-03-04T14:05:36.274Z,98774.31
2023-03-04T14:08:39.510Z,98765.47
2023-03-04T14:11:44.562Z,98762.91
2023-03-04T14:14:49.015Z,98769.19
2023-03-04T14:17:52.985Z,98769.25
2023-03-04T14:20:59.126Z,98765.88
2023-03-04T14:24:03.763Z,98760.63
2023-03-04T14:27:11.720Z,98762.38
2023-03-04T14:30:31.815Z,98763.16
2023-03-04T14:33:44.301Z,98766.75
2023-03-04T14:36:45.925Z,98758.00
2023-03-04T14:39:53.510Z,98755.38
2023-03-04T14:42:56.790Z,98750.03
2023-03-04T14:46:01.218Z,98747.28
2023-03-04T14:49:03.521Z,98731.53
2023-03-04T14:52:06.076Z,98741.84
2023-03-04T14:55:25.896Z,98745.25
2023-03-04T14:58:29.862Z,98741.72
2023-03-04T15:01:33.707Z,98740.91
2023-03-04T15:04:38.810Z,98735.69
2023-03-04T15:07:41.446Z,98728.72
2023-03-04T15:10:43.467Z,98733.13
2023-03-04T15:13:48.645Z,98735.75
2023-03-04T15:16:56.756Z,98728.72
2023-03-04T15:20:03.359Z,98733.09
2023-03-04T15:23:07.300Z,98723.44
2023-03-04T15:26:10.554Z,98729.59
2023-03-04T15:29:15.971Z,98720.88
2023-03-04T15:32:17.730Z,98724.50
2023-03-04T15:35:20.091Z,98728.97
2023-03-04T15:38:22.502Z,98728.28
2023-03-04T15:41:25.894Z,98726.59
2023-03-04T15:44:29.120Z,98740.84
2023-03-04T15:47:31.139Z,98740.19
2023-03-04T15:50:32.817Z,98732.31
2023-03-04T15:53:36.892Z,98738.59
2023-03-04T15:56:39.132Z,98734.25
2023-03-04T15:59:42.173Z,98735.09
2023-03-04T16:02:43.655Z,98732.47
2023-03-04T16:05:46.540Z,98748.28
2023-03-04T16:08:49.618Z,98739.59
2023-03-04T16:11:51.154Z,98737.00
2023-03-04T16:14:54.310Z,98736.16
2023-03-04T16:17:56.215Z,98730.91
2023-03-04T16:20:58.137Z,98740.63
2023-03-04T16:24:00.155Z,98745.94
2023-03-04T16:27:01.889Z,98747.03
2023-03-04T16:30:05.985Z,98748.22
2023-03-04T16:33:08.165Z,98731.69
2023-03-04T16:36:12.386Z,98744.03
2023-03-04T16:39:19.072Z,98732.63
2023-03-04T16:42:22.081Z,98745.81
2023-03-04T16:45:26.789Z,98743.19
2023-03-04T16:48:28.307Z,98738.81
2023-03-04T16:51:30.757Z,98739.66
2023-03-04T16:54:33.794Z,98736.13
2023-03-04T16:57:35.491Z,98738.78
2023-03-04T17:00:38.520Z,98735.28
2023-03-04T17:03:40.086Z,98726.44
2023-03-04T17:06:41.685Z,98736.97
2023-03-04T17:09:43.344Z,98732.53
2023-03-04T17:12:45.323Z,98733.38
2023-03-04T17:15:48.221Z,98736.06
2023-03-04T17:18:49.784Z,98736.84
2023-03-04T17:21:51.383Z,98738.63
2023-03-04T17:24:52.931Z,98736.91
2023-03-04T17:27:54.815Z,98741.34
2023-03-04T17:30:58.312Z,98744.84
2023-03-04T17:34:00.040Z,98743.94
2023-03-04T17:37:01.706Z,98748.31
2023-03-04T17:40:04.091Z,98751.84
2023-03-04T17:43:11.358Z,98757.97
2023-03-04T17:46:15.146Z,98761.50
2023-03-04T17:49:17.594Z,98759.75
2023-03-04T17:52:19.304Z,98762.44
2023-03-04T17:55:21.073Z,98766.78
2023-03-04T17:58:22.967Z,98765.16
2023-03-04T18:01:26.105Z,98761.66
2023-03-04T18:04:27.807Z,98761.69
2023-03-04T18:07:29.599Z,98764.34
2023-03-04T18:10:31.690Z,98755.59
2023-03-04T18:13:33.306Z,98755.59
2023-03-04T18:16:36.560Z,98755.59
2023-03-04T18:19:38.387Z,98758.25
2023-03-04T18:22:40.388Z,98758.25
2023-03-04T18:25:42.043Z,98757.41
2023-03-04T18:28:43.663Z,98755.63
2023-03-04T18:31:46.761Z,98754.75
2023-03-04T18:34:48.843Z,98745.09
2023-03-04T18:37:50.550Z,98752.13
2023-03-04T18:40:53.112Z,98750.38
2023-03-04T18:43:54.889Z,98746.03
2023-03-04T18:46:57.944Z,98746.88
2023-03-04T18:49:59.922Z,98748.63
2023-03-04T18:53:01.569Z,98744.28
2023-03-04T18:56:07.504Z,98740.81
2023-03-04T18:59:12.991Z,98744.34
2023-03-04T19:02:20.357Z,98737.31
2023-03-04T19:05:23.391Z,98744.34
2023-03-04T19:08:25.114Z,98743.47
2023-03-04T19:11:27.240Z,98734.66
2023-03-04T19:14:28.921Z,98738.25
2023-03-04T19:17:32.743Z,98747.88
2023-03-04T19:20:34.449Z,98752.28
2023-03-04T19:23:36.017Z,98755.75
2023-03-04T19:26:37.886Z,98754.97
2023-03-04T19:29:39.809Z,98758.50
2023-03-04T19:32:43.572Z,98758.53
2023-03-04T19:35:45.991Z,98758.53
2023-03-04T19:38:47.530Z,98756.84
2023-03-04T19:41:49.468Z,98764.75
2023-03-04T19:44:51.631Z,98761.28
2023-03-04T19:47:54.945Z,98764.72
2023-03-04T19:50:56.568Z,98771.78
2023-03-04T19:53:58.522Z,98774.34
2023-03-04T19:57:00.291Z,98781.38
2023-03-04T20:00:03.247Z,98779.66
2023-03-04T20:03:07.788Z,98777.84
2023-03-04T20:06:09.412Z,98773.50
2023-03-04T20:09:11.484Z,98777.06
2023-03-04T20:12:13.041Z,98768.28
2023-03-04T20:15:14.577Z,98776.22
2023-03-04T20:18:18.647Z,98776.22
2023-03-04T20:21:20.484Z,98771.84
2023-03-04T20:24:23.462Z,98775.31
2023-03-04T20:27:25.254Z,98770.97
2023-03-04T20:30:29.946Z,98772.72
2023-03-04T20:33:32.794Z,98769.25
2023-03-04T20:36:34.948Z,98775.34
2023-03-04T20:39:36.517Z,98769.25
2023-03-04T20:42:38.215Z,98771.91
2023-03-04T20:45:40.052Z,98769.28
2023-03-04T20:48:43.307Z,98776.28
2023-03-04T20:51:44.958Z,98768.38
2023-03-04T20:54:46.534Z,98771.88
2023-03-04T20:57:49.526Z,98764.03
2023-03-04T21:00:51.187Z,98759.66
2023-03-04T21:07:14.986Z,98767.72
2023-03-04T21:10:19.475Z,98773.97
2023-03-04T21:13:23.514Z,98767.03
2023-03-04T21:16:29.491Z,98775.00
2023-03-04T21:19:34.966Z,98780.41
2023-03-04T21:22:38.148Z,98777.00
2023-03-04T21:25:42.084Z,98770.03
2023-03-04T21:28:43.807Z,98777.03
2023-03-04T21:31:46.599Z,98764.81
2023-03-04T21:34:49.341Z,98771.84
2023-03-04T21:37:52.787Z,98759.59
2023-03-04T21:40:54.565Z,98751.72
2023-03-04T21:43:56.299Z,98757.81
2023-03-04T21:46:58.748Z,98749.91
2023-03-04T21:50:00.306Z,98747.22
2023-03-04T21:53:03.493Z,98748.09
2023-03-04T21:56:05.575Z,98746.31
2023-03-04T21:59:09.019Z,98746.31
2023-03-04T22:02:13.775Z,98748.97
2023-03-04T22:05:17.145Z,98735.81
2023-03-04T22:08:21.765Z,98738.41
2023-03-04T22:11:25.415Z,98737.56
2023-03-04T22:14:29.386Z,98732.31
2023-03-04T22:17:31.209Z,98730.53
2023-03-04T22:20:33.833Z,98726.16
2023-03-04T22:23:37.241Z,98729.69
2023-03-04T22:26:38.976Z,98721.72
2023-03-04T22:29:40.816Z,98720.81
2023-03-04T22:32:44.246Z,98723.44
2023-03-04T22:35:46.259Z,98720.78
2023-03-04T22:38:49.325Z,98718.13
2023-03-04T22:41:50.987Z,98714.56
2023-03-04T22:44:54.311Z,98720.69
2023-03-04T22:47:55.936Z,98714.56
2023-03-04T22:50:57.858Z,98713.66
2023-03-04T22:54:00.878Z,98712.81
2023-03-04T22:57:02.605Z,98712.78
2023-03-04T23:00:06.509Z,98706.66
2023-03-04T23:03:08.673Z,98714.56
2023-03-04T23:06:12.995Z,98711.97
2023-03-04T23:09:16.430Z,98711.06
2023-03-04T23:12:18.318Z,98716.38
2023-03-04T23:15:20.363Z,98707.66
2023-03-04T23:18:24.393Z,98705.88
2023-03-04T23:21:29.249Z,98705.88
2023-03-04T23:24:32.317Z,98703.31
2023-03-04T23:27:33.898Z,98697.19
2023-03-04T23:30:35.585Z,98687.56
2023-03-04T23:33:37.327Z,98684.84
2023-03-04T23:36:39.105Z,98690.09
2023-03-04T23:39:42.116Z,98691.84
2023-03-04T23:42:43.620Z,98693.56
2023-03-04T23:45:45.504Z,98687.44
2023-03-04T23:48:47.886Z,98690.06
2023-03-04T23:51:49.482Z,98688.41
2023-03-04T23:54:52.561Z,98685.78
2023-03-04T23:57:54.533Z,98683.97
